EWG9BN EGLL-EDDH
Flight info
| Callsign | EWG9BN |
|---|---|
| Flight time | 1h 7m |
| Altitude | 38000 |
| Route | BPK Q295 SOMVA DCT MAVAS DCT GASTU DCT OSTOR T904 RIBSO RIBSO7A |
| Aircraft | A319/M-SDE3FGHIRWY/LB1 |
Departure
| Time | 2026-05-06 10:58 |
|---|---|
| Airport | London Heathrow Airport (EGLL) |
Arrival
| Time | 2026-05-06 12:06 |
|---|---|
| Airport | Hamburg Helmut Schmidt Airport (EDDH) |
| Time | Latitude | Longitude | Altitude | Speed | Heading |
|---|---|---|---|---|---|
| 2026-05-06 10:32 | 51.46926 | -0.48650 | 90 ft | 0 kts | 360° |
| 2026-05-06 10:50 | 51.46914 | -0.48650 | 91 ft | 4 kts | 3° |
| 2026-05-06 10:50 | 51.46888 | -0.48658 | 89 ft | 4 kts | 33° |
| 2026-05-06 10:50 | 51.46877 | -0.48681 | 90 ft | 1 kts | 89° |
| 2026-05-06 10:51 | 51.46877 | -0.48682 | 90 ft | 0 kts | 89° |
| 2026-05-06 10:54 | 51.46877 | -0.48679 | 89 ft | 1 kts | 89° |
| 2026-05-06 10:54 | 51.46877 | -0.48634 | 90 ft | 7 kts | 89° |
| 2026-05-06 10:54 | 51.46870 | -0.48503 | 92 ft | 14 kts | 119° |
| 2026-05-06 10:54 | 51.46822 | -0.48470 | 92 ft | 0 kts | 176° |
| 2026-05-06 10:55 | 51.46819 | -0.48470 | 92 ft | 0 kts | 177° |
| 2026-05-06 10:56 | 51.46808 | -0.48470 | 92 ft | 4 kts | 179° |
| 2026-05-06 10:56 | 51.46765 | -0.48470 | 93 ft | 8 kts | 180° |
| 2026-05-06 10:56 | 51.46694 | -0.48469 | 94 ft | 12 kts | 180° |
| 2026-05-06 10:56 | 51.46625 | -0.48469 | 96 ft | 10 kts | 180° |
| 2026-05-06 10:57 | 51.46547 | -0.48469 | 96 ft | 13 kts | 179° |
| 2026-05-06 10:57 | 51.46474 | -0.48393 | 94 ft | 12 kts | 89° |
| 2026-05-06 10:57 | 51.46474 | -0.48386 | 94 ft | 0 kts | 88° |
| 2026-05-06 10:57 | 51.46475 | -0.48370 | 95 ft | 15 kts | 88° |
| 2026-05-06 10:58 | 51.46481 | -0.47718 | 89 ft | 99 kts | 89° |
| 2026-05-06 10:58 | 51.46481 | -0.46257 | 152 ft | 158 kts | 87° |
| 2026-05-06 10:58 | 51.46457 | -0.43926 | 1254 ft | 158 kts | 84° |
| 2026-05-06 10:58 | 51.46505 | -0.42046 | 1850 ft | 178 kts | 79° |
| 2026-05-06 10:59 | 51.46958 | -0.40132 | 2444 ft | 194 kts | 54° |
| 2026-05-06 10:59 | 51.47546 | -0.38923 | 2821 ft | 213 kts | 47° |
| 2026-05-06 10:59 | 51.48541 | -0.36947 | 3545 ft | 241 kts | 49° |
| 2026-05-06 10:59 | 51.49637 | -0.34799 | 4734 ft | 251 kts | 47° |
| 2026-05-06 11:00 | 51.50741 | -0.32614 | 6096 ft | 256 kts | 46° |
| 2026-05-06 11:00 | 51.52251 | -0.29585 | 7593 ft | 271 kts | 52° |
| 2026-05-06 11:00 | 51.52836 | -0.27764 | 8322 ft | 282 kts | 66° |
| 2026-05-06 11:00 | 51.53474 | -0.24762 | 9558 ft | 286 kts | 64° |
| 2026-05-06 11:01 | 51.54515 | -0.22034 | 10615 ft | 292 kts | 47° |
| 2026-05-06 11:01 | 51.56159 | -0.19968 | 11169 ft | 312 kts | 25° |
| 2026-05-06 11:01 | 51.58167 | -0.18442 | 11928 ft | 326 kts | 22° |
| 2026-05-06 11:01 | 51.60320 | -0.17163 | 12769 ft | 334 kts | 13° |
| 2026-05-06 11:02 | 51.62579 | -0.16221 | 13814 ft | 338 kts | 13° |
| 2026-05-06 11:02 | 51.64876 | -0.15271 | 14695 ft | 343 kts | 13° |
| 2026-05-06 11:02 | 51.67202 | -0.14275 | 15596 ft | 349 kts | 13° |
| 2026-05-06 11:02 | 51.69487 | -0.12814 | 16379 ft | 359 kts | 26° |
| 2026-05-06 11:03 | 51.71596 | -0.10581 | 17259 ft | 367 kts | 37° |
| 2026-05-06 11:03 | 51.73415 | -0.07648 | 18103 ft | 375 kts | 49° |
| 2026-05-06 11:03 | 51.74850 | -0.04097 | 18889 ft | 382 kts | 62° |
| 2026-05-06 11:03 | 51.75797 | -0.00050 | 19624 ft | 389 kts | 76° |
| 2026-05-06 11:04 | 51.76234 | 0.04266 | 20408 ft | 392 kts | 82° |
| 2026-05-06 11:04 | 51.76597 | 0.08661 | 21198 ft | 397 kts | 82° |
| 2026-05-06 11:04 | 51.76962 | 0.13096 | 21945 ft | 401 kts | 82° |
| 2026-05-06 11:04 | 51.77331 | 0.17579 | 22736 ft | 405 kts | 82° |
| 2026-05-06 11:05 | 51.77700 | 0.22128 | 23424 ft | 411 kts | 82° |
| 2026-05-06 11:05 | 51.78070 | 0.26700 | 24102 ft | 413 kts | 82° |
| 2026-05-06 11:05 | 51.78444 | 0.31335 | 24720 ft | 417 kts | 82° |
| 2026-05-06 11:05 | 51.78815 | 0.35947 | 25289 ft | 421 kts | 82° |
| 2026-05-06 11:06 | 51.79191 | 0.40649 | 25920 ft | 424 kts | 82° |
| 2026-05-06 11:06 | 51.79566 | 0.45391 | 26480 ft | 428 kts | 82° |
| 2026-05-06 11:06 | 51.79945 | 0.50179 | 27108 ft | 430 kts | 83° |
| 2026-05-06 11:06 | 51.80323 | 0.54995 | 27676 ft | 435 kts | 83° |
| 2026-05-06 11:07 | 51.80700 | 0.59859 | 28257 ft | 438 kts | 83° |
| 2026-05-06 11:07 | 51.81229 | 0.64722 | 28817 ft | 442 kts | 76° |
| 2026-05-06 11:07 | 51.82212 | 0.69454 | 29336 ft | 446 kts | 67° |
| 2026-05-06 11:07 | 51.83429 | 0.74095 | 29944 ft | 449 kts | 66° |
| 2026-05-06 11:08 | 51.84650 | 0.78763 | 30406 ft | 453 kts | 66° |
| 2026-05-06 11:08 | 51.85877 | 0.83475 | 30881 ft | 455 kts | 66° |
| 2026-05-06 11:08 | 51.87100 | 0.88213 | 31313 ft | 459 kts | 67° |
| 2026-05-06 11:08 | 51.88324 | 0.92980 | 31794 ft | 460 kts | 67° |
| 2026-05-06 11:09 | 51.89546 | 0.97760 | 32418 ft | 458 kts | 68° |
| 2026-05-06 11:09 | 51.90762 | 1.02530 | 33112 ft | 455 kts | 67° |
| 2026-05-06 11:09 | 51.91968 | 1.07266 | 33772 ft | 454 kts | 67° |
| 2026-05-06 11:09 | 51.93165 | 1.11971 | 34401 ft | 451 kts | 67° |
| 2026-05-06 11:10 | 51.94348 | 1.16617 | 34866 ft | 452 kts | 67° |
| 2026-05-06 11:10 | 51.95548 | 1.21330 | 35343 ft | 452 kts | 67° |
| 2026-05-06 11:10 | 51.96751 | 1.26059 | 35782 ft | 454 kts | 68° |
| 2026-05-06 11:10 | 51.97948 | 1.30782 | 36235 ft | 455 kts | 68° |
| 2026-05-06 11:11 | 51.99148 | 1.35532 | 36648 ft | 456 kts | 68° |
| 2026-05-06 11:11 | 52.00355 | 1.40316 | 36912 ft | 457 kts | 68° |
| 2026-05-06 11:11 | 52.01560 | 1.45102 | 36971 ft | 457 kts | 68° |
| 2026-05-06 11:12 | 52.03955 | 1.54668 | 36967 ft | 457 kts | 68° |
| 2026-05-06 11:12 | 52.06337 | 1.64179 | 36964 ft | 457 kts | 68° |
| 2026-05-06 11:13 | 52.08723 | 1.73755 | 36966 ft | 457 kts | 68° |
| 2026-05-06 11:13 | 52.11086 | 1.83329 | 36967 ft | 457 kts | 68° |
| 2026-05-06 11:14 | 52.13475 | 1.92923 | 36957 ft | 456 kts | 67° |
| 2026-05-06 11:14 | 52.16085 | 2.02362 | 36959 ft | 456 kts | 65° |
| 2026-05-06 11:15 | 52.18769 | 2.11650 | 36961 ft | 456 kts | 65° |
| 2026-05-06 11:15 | 52.21450 | 2.21098 | 36941 ft | 456 kts | 66° |
| 2026-05-06 11:16 | 52.24046 | 2.30469 | 36944 ft | 456 kts | 66° |
| 2026-05-06 11:16 | 52.26646 | 2.39904 | 36958 ft | 456 kts | 66° |
| 2026-05-06 11:17 | 52.29244 | 2.49366 | 36942 ft | 457 kts | 66° |
| 2026-05-06 11:17 | 52.31840 | 2.58857 | 36937 ft | 457 kts | 66° |
| 2026-05-06 11:18 | 52.34433 | 2.68348 | 36934 ft | 457 kts | 66° |
| 2026-05-06 11:18 | 52.37023 | 2.77871 | 36933 ft | 457 kts | 66° |
| 2026-05-06 11:19 | 52.39597 | 2.87373 | 36942 ft | 458 kts | 67° |
| 2026-05-06 11:19 | 52.42174 | 2.96934 | 36928 ft | 458 kts | 67° |
| 2026-05-06 11:20 | 52.44734 | 3.06483 | 36944 ft | 458 kts | 67° |
| 2026-05-06 11:20 | 52.47274 | 3.15985 | 36944 ft | 458 kts | 67° |
| 2026-05-06 11:21 | 52.49825 | 3.25562 | 36942 ft | 458 kts | 67° |
| 2026-05-06 11:21 | 52.52373 | 3.35166 | 36931 ft | 459 kts | 67° |
| 2026-05-06 11:22 | 52.54907 | 3.44774 | 36927 ft | 459 kts | 67° |
| 2026-05-06 11:22 | 52.57437 | 3.54408 | 36924 ft | 459 kts | 68° |
| 2026-05-06 11:23 | 52.59965 | 3.64065 | 36932 ft | 459 kts | 68° |
| 2026-05-06 11:23 | 52.62485 | 3.73729 | 36935 ft | 459 kts | 68° |
| 2026-05-06 11:24 | 52.64993 | 3.83383 | 36909 ft | 459 kts | 68° |
| 2026-05-06 11:24 | 52.67479 | 3.93004 | 36926 ft | 459 kts | 68° |
| 2026-05-06 11:25 | 52.69970 | 4.02677 | 36918 ft | 459 kts | 68° |
| 2026-05-06 11:25 | 52.72461 | 4.12392 | 36919 ft | 459 kts | 68° |
| 2026-05-06 11:26 | 52.74945 | 4.22114 | 36920 ft | 460 kts | 68° |
| 2026-05-06 11:26 | 52.77412 | 4.31848 | 36915 ft | 460 kts | 68° |
| 2026-05-06 11:27 | 52.79874 | 4.41612 | 36919 ft | 459 kts | 68° |
| 2026-05-06 11:27 | 52.82330 | 4.51352 | 36915 ft | 459 kts | 68° |
| 2026-05-06 11:28 | 52.84785 | 4.61118 | 36913 ft | 459 kts | 69° |
| 2026-05-06 11:28 | 52.87220 | 4.70882 | 36914 ft | 459 kts | 69° |
| 2026-05-06 11:29 | 52.89647 | 4.80655 | 36914 ft | 459 kts | 69° |
| 2026-05-06 11:29 | 52.92074 | 4.90453 | 36919 ft | 459 kts | 69° |
| 2026-05-06 11:30 | 52.94490 | 5.00278 | 36909 ft | 460 kts | 69° |
| 2026-05-06 11:30 | 52.96882 | 5.10035 | 36893 ft | 460 kts | 69° |
| 2026-05-06 11:31 | 52.99289 | 5.19876 | 36910 ft | 460 kts | 69° |
| 2026-05-06 11:31 | 53.01670 | 5.29738 | 36912 ft | 460 kts | 70° |
| 2026-05-06 11:32 | 53.03929 | 5.39704 | 36915 ft | 460 kts | 71° |
| 2026-05-06 11:32 | 53.06121 | 5.49701 | 36906 ft | 460 kts | 71° |
| 2026-05-06 11:33 | 53.08261 | 5.59717 | 36905 ft | 459 kts | 72° |
| 2026-05-06 11:33 | 53.10390 | 5.69745 | 36902 ft | 459 kts | 72° |
| 2026-05-06 11:34 | 53.12505 | 5.79690 | 36902 ft | 460 kts | 72° |
| 2026-05-06 11:34 | 53.14632 | 5.89737 | 36909 ft | 460 kts | 72° |
| 2026-05-06 11:34 | 53.15693 | 5.94755 | 36603 ft | 458 kts | 72° |
| 2026-05-06 11:35 | 53.16748 | 5.99761 | 35994 ft | 459 kts | 72° |
| 2026-05-06 11:35 | 53.17802 | 6.04789 | 35388 ft | 458 kts | 72° |
| 2026-05-06 11:35 | 53.18842 | 6.09761 | 34948 ft | 453 kts | 73° |
| 2026-05-06 11:35 | 53.19873 | 6.14694 | 34526 ft | 447 kts | 72° |
| 2026-05-06 11:36 | 53.20891 | 6.19586 | 34109 ft | 441 kts | 73° |
| 2026-05-06 11:36 | 53.21886 | 6.24382 | 33677 ft | 435 kts | 73° |
| 2026-05-06 11:36 | 53.22869 | 6.29118 | 33136 ft | 431 kts | 73° |
| 2026-05-06 11:36 | 53.23837 | 6.33799 | 32623 ft | 426 kts | 73° |
| 2026-05-06 11:37 | 53.24794 | 6.38440 | 32084 ft | 422 kts | 74° |
| 2026-05-06 11:37 | 53.25724 | 6.42972 | 31586 ft | 419 kts | 73° |
| 2026-05-06 11:37 | 53.26675 | 6.47606 | 31055 ft | 415 kts | 73° |
| 2026-05-06 11:37 | 53.27603 | 6.52124 | 30569 ft | 411 kts | 74° |
| 2026-05-06 11:38 | 53.28528 | 6.56627 | 30059 ft | 407 kts | 74° |
| 2026-05-06 11:38 | 53.29432 | 6.61051 | 29507 ft | 404 kts | 74° |
| 2026-05-06 11:38 | 53.30341 | 6.65533 | 28942 ft | 401 kts | 74° |
| 2026-05-06 11:38 | 53.31220 | 6.69877 | 28406 ft | 398 kts | 73° |
| 2026-05-06 11:39 | 53.32105 | 6.74239 | 27931 ft | 394 kts | 73° |
| 2026-05-06 11:39 | 53.32986 | 6.78571 | 27438 ft | 392 kts | 73° |
| 2026-05-06 11:39 | 53.33612 | 6.82967 | 26932 ft | 386 kts | 87° |
| 2026-05-06 11:39 | 53.33719 | 6.87441 | 26455 ft | 383 kts | 90° |
| 2026-05-06 11:40 | 53.33794 | 6.91888 | 25930 ft | 382 kts | 90° |
| 2026-05-06 11:40 | 53.33861 | 6.96301 | 25435 ft | 379 kts | 90° |
| 2026-05-06 11:40 | 53.33927 | 7.00694 | 24938 ft | 378 kts | 91° |
| 2026-05-06 11:40 | 53.33990 | 7.05109 | 24399 ft | 377 kts | 91° |
| 2026-05-06 11:41 | 53.34050 | 7.09468 | 23926 ft | 374 kts | 91° |
| 2026-05-06 11:41 | 53.34109 | 7.13817 | 23403 ft | 373 kts | 90° |
| 2026-05-06 11:41 | 53.34168 | 7.18167 | 22805 ft | 372 kts | 91° |
| 2026-05-06 11:41 | 53.34227 | 7.22466 | 22314 ft | 367 kts | 91° |
| 2026-05-06 11:42 | 53.34287 | 7.26693 | 21845 ft | 361 kts | 91° |
| 2026-05-06 11:42 | 53.34344 | 7.30876 | 21351 ft | 358 kts | 91° |
| 2026-05-06 11:42 | 53.34397 | 7.35021 | 20854 ft | 354 kts | 91° |
| 2026-05-06 11:42 | 53.34447 | 7.39129 | 20353 ft | 351 kts | 91° |
| 2026-05-06 11:43 | 53.34495 | 7.43200 | 19861 ft | 348 kts | 91° |
| 2026-05-06 11:43 | 53.34539 | 7.47224 | 19395 ft | 345 kts | 92° |
| 2026-05-06 11:43 | 53.34580 | 7.51179 | 18915 ft | 342 kts | 92° |
| 2026-05-06 11:44 | 53.34657 | 7.59067 | 17972 ft | 336 kts | 91° |
| 2026-05-06 11:44 | 53.34695 | 7.62959 | 17446 ft | 334 kts | 91° |
| 2026-05-06 11:44 | 53.34730 | 7.66827 | 16958 ft | 331 kts | 91° |
| 2026-05-06 11:44 | 53.34766 | 7.70662 | 16468 ft | 328 kts | 90° |
| 2026-05-06 11:45 | 53.34803 | 7.74461 | 16005 ft | 324 kts | 90° |
| 2026-05-06 11:45 | 53.34839 | 7.78205 | 15587 ft | 320 kts | 89° |
| 2026-05-06 11:45 | 53.34871 | 7.81902 | 15133 ft | 317 kts | 89° |
| 2026-05-06 11:45 | 53.34901 | 7.85578 | 14675 ft | 315 kts | 89° |
| 2026-05-06 11:46 | 53.34928 | 7.89223 | 14244 ft | 312 kts | 89° |
| 2026-05-06 11:46 | 53.34954 | 7.92844 | 13806 ft | 310 kts | 89° |
| 2026-05-06 11:46 | 53.34979 | 7.96453 | 13334 ft | 308 kts | 89° |
| 2026-05-06 11:46 | 53.35002 | 8.00003 | 12858 ft | 306 kts | 89° |
| 2026-05-06 11:47 | 53.35025 | 8.03560 | 12377 ft | 304 kts | 89° |
| 2026-05-06 11:47 | 53.35049 | 8.07072 | 11920 ft | 302 kts | 88° |
| 2026-05-06 11:47 | 53.35063 | 8.09399 | 11644 ft | 301 kts | 89° |
| 2026-05-06 11:47 | 53.35082 | 8.12907 | 11160 ft | 300 kts | 88° |
| 2026-05-06 11:48 | 53.35101 | 8.16512 | 10867 ft | 319 kts | 89° |
| 2026-05-06 11:48 | 53.35121 | 8.20258 | 10873 ft | 325 kts | 89° |
| 2026-05-06 11:48 | 53.35138 | 8.24052 | 10873 ft | 327 kts | 88° |
| 2026-05-06 11:48 | 53.35154 | 8.27839 | 10873 ft | 322 kts | 89° |
| 2026-05-06 11:49 | 53.35170 | 8.31579 | 10875 ft | 320 kts | 88° |
| 2026-05-06 11:49 | 53.35186 | 8.35306 | 10874 ft | 319 kts | 88° |
| 2026-05-06 11:49 | 53.35199 | 8.39021 | 10873 ft | 319 kts | 89° |
| 2026-05-06 11:49 | 53.35225 | 8.42735 | 10870 ft | 320 kts | 85° |
| 2026-05-06 11:50 | 53.35651 | 8.46367 | 10875 ft | 318 kts | 74° |
| 2026-05-06 11:50 | 53.36219 | 8.49928 | 10873 ft | 318 kts | 73° |
| 2026-05-06 11:50 | 53.36800 | 8.53518 | 10874 ft | 318 kts | 74° |
| 2026-05-06 11:50 | 53.37375 | 8.57087 | 10872 ft | 317 kts | 74° |
| 2026-05-06 11:51 | 53.37951 | 8.60659 | 10873 ft | 318 kts | 74° |
| 2026-05-06 11:51 | 53.38532 | 8.64237 | 10874 ft | 318 kts | 74° |
| 2026-05-06 11:51 | 53.39109 | 8.67816 | 10868 ft | 318 kts | 74° |
| 2026-05-06 11:51 | 53.39552 | 8.71427 | 10864 ft | 319 kts | 85° |
| 2026-05-06 11:52 | 53.39420 | 8.75157 | 10870 ft | 320 kts | 95° |
| 2026-05-06 11:52 | 53.39198 | 8.78824 | 10873 ft | 319 kts | 95° |
| 2026-05-06 11:52 | 53.38969 | 8.82555 | 10867 ft | 317 kts | 95° |
| 2026-05-06 11:52 | 53.38745 | 8.86173 | 10868 ft | 316 kts | 95° |
| 2026-05-06 11:53 | 53.38515 | 8.89844 | 10866 ft | 316 kts | 95° |
| 2026-05-06 11:53 | 53.38286 | 8.93495 | 10868 ft | 315 kts | 95° |
| 2026-05-06 11:53 | 53.38056 | 8.97154 | 10869 ft | 317 kts | 95° |
| 2026-05-06 11:53 | 53.37826 | 9.00815 | 10863 ft | 317 kts | 95° |
| 2026-05-06 11:54 | 53.37596 | 9.04494 | 10867 ft | 316 kts | 95° |
| 2026-05-06 11:54 | 53.37365 | 9.08167 | 10864 ft | 316 kts | 95° |
| 2026-05-06 11:54 | 53.37134 | 9.11828 | 10856 ft | 316 kts | 95° |
| 2026-05-06 11:54 | 53.36906 | 9.15393 | 10862 ft | 298 kts | 95° |
| 2026-05-06 11:55 | 53.36688 | 9.18758 | 10820 ft | 285 kts | 95° |
| 2026-05-06 11:55 | 53.36474 | 9.22029 | 10693 ft | 281 kts | 95° |
| 2026-05-06 11:55 | 53.36260 | 9.25307 | 10299 ft | 284 kts | 95° |
| 2026-05-06 11:55 | 53.36044 | 9.28611 | 9812 ft | 287 kts | 95° |
| 2026-05-06 11:56 | 53.35824 | 9.31934 | 9277 ft | 285 kts | 96° |
| 2026-05-06 11:56 | 53.35606 | 9.35213 | 8746 ft | 281 kts | 96° |
| 2026-05-06 11:56 | 53.35396 | 9.38408 | 8225 ft | 273 kts | 96° |
| 2026-05-06 11:56 | 53.35446 | 9.41543 | 7702 ft | 267 kts | 80° |
| 2026-05-06 11:57 | 53.36060 | 9.44449 | 7209 ft | 265 kts | 63° |
| 2026-05-06 11:57 | 53.37143 | 9.46926 | 6712 ft | 263 kts | 51° |
| 2026-05-06 11:57 | 53.38295 | 9.49242 | 6214 ft | 256 kts | 52° |
| 2026-05-06 11:57 | 53.39424 | 9.51521 | 5684 ft | 252 kts | 52° |
| 2026-05-06 11:58 | 53.40549 | 9.53760 | 5172 ft | 251 kts | 51° |
| 2026-05-06 11:58 | 53.41650 | 9.55945 | 4987 ft | 239 kts | 51° |
| 2026-05-06 11:58 | 53.42695 | 9.58023 | 4987 ft | 234 kts | 52° |
| 2026-05-06 11:58 | 53.43739 | 9.60101 | 4989 ft | 233 kts | 52° |
| 2026-05-06 11:59 | 53.44778 | 9.62171 | 5003 ft | 227 kts | 51° |
| 2026-05-06 11:59 | 53.45777 | 9.64162 | 4982 ft | 219 kts | 52° |
| 2026-05-06 11:59 | 53.46730 | 9.66060 | 4770 ft | 208 kts | 52° |
| 2026-05-06 11:59 | 53.47645 | 9.67889 | 4497 ft | 201 kts | 52° |
| 2026-05-06 12:00 | 53.48535 | 9.69666 | 4235 ft | 195 kts | 52° |
| 2026-05-06 12:00 | 53.49397 | 9.71389 | 3964 ft | 189 kts | 52° |
| 2026-05-06 12:00 | 53.50223 | 9.73041 | 3742 ft | 179 kts | 52° |
| 2026-05-06 12:00 | 53.51001 | 9.74598 | 3483 ft | 168 kts | 52° |
| 2026-05-06 12:01 | 53.51726 | 9.76051 | 3266 ft | 158 kts | 52° |
| 2026-05-06 12:01 | 53.52423 | 9.77448 | 3056 ft | 154 kts | 52° |
| 2026-05-06 12:01 | 53.53106 | 9.78820 | 2845 ft | 153 kts | 52° |
| 2026-05-06 12:01 | 53.53788 | 9.80189 | 2626 ft | 152 kts | 52° |
| 2026-05-06 12:02 | 53.54455 | 9.81526 | 2435 ft | 146 kts | 52° |
| 2026-05-06 12:02 | 53.55073 | 9.82767 | 2240 ft | 128 kts | 52° |
| 2026-05-06 12:02 | 53.55607 | 9.83839 | 2081 ft | 115 kts | 52° |
| 2026-05-06 12:02 | 53.56108 | 9.84848 | 1926 ft | 110 kts | 51° |
| 2026-05-06 12:03 | 53.56593 | 9.85826 | 1757 ft | 108 kts | 51° |
| 2026-05-06 12:03 | 53.57078 | 9.86801 | 1594 ft | 108 kts | 51° |
| 2026-05-06 12:03 | 53.57560 | 9.87764 | 1460 ft | 107 kts | 51° |
| 2026-05-06 12:03 | 53.58047 | 9.88748 | 1339 ft | 112 kts | 50° |
| 2026-05-06 12:04 | 53.58558 | 9.89777 | 1180 ft | 116 kts | 51° |
| 2026-05-06 12:04 | 53.59068 | 9.90818 | 1014 ft | 114 kts | 51° |
| 2026-05-06 12:04 | 53.59568 | 9.91841 | 859 ft | 111 kts | 50° |
| 2026-05-06 12:04 | 53.60062 | 9.92841 | 674 ft | 114 kts | 49° |
| 2026-05-06 12:05 | 53.60570 | 9.93857 | 495 ft | 115 kts | 50° |
| 2026-05-06 12:05 | 53.61095 | 9.94911 | 375 ft | 118 kts | 51° |
| 2026-05-06 12:05 | 53.61627 | 9.95980 | 193 ft | 117 kts | 50° |
| 2026-05-06 12:05 | 53.62130 | 9.96988 | 60 ft | 104 kts | 52° |
| 2026-05-06 12:06 | 53.62494 | 9.97729 | 41 ft | 50 kts | 50° |
| 2026-05-06 12:06 | 53.62690 | 9.98121 | 43 ft | 40 kts | 50° |
| 2026-05-06 12:06 | 53.62749 | 9.98347 | 43 ft | 16 kts | 132° |
| 2026-05-06 12:06 | 53.62729 | 9.98373 | 45 ft | 0 kts | 146° |
| 2026-05-06 12:07 | 53.62728 | 9.98375 | 45 ft | 1 kts | 146° |
| 2026-05-06 12:07 | 53.62710 | 9.98395 | 45 ft | 6 kts | 144° |
| 2026-05-06 12:07 | 53.62688 | 9.98431 | 46 ft | 0 kts | 132° |
| 2026-05-06 12:07 | 53.62684 | 9.98438 | 47 ft | 1 kts | 131° |
| 2026-05-06 12:08 | 53.62675 | 9.98469 | 44 ft | 8 kts | 108° |
| 2026-05-06 12:08 | 53.62716 | 9.98605 | 47 ft | 19 kts | 50° |
| 2026-05-06 12:08 | 53.62821 | 9.98817 | 47 ft | 28 kts | 50° |
| 2026-05-06 12:08 | 53.62960 | 9.99100 | 47 ft | 35 kts | 50° |
| 2026-05-06 12:09 | 53.63127 | 9.99470 | 46 ft | 43 kts | 56° |
| 2026-05-06 12:09 | 53.63264 | 9.99742 | 49 ft | 24 kts | 45° |
| 2026-05-06 12:09 | 53.63387 | 9.99983 | 49 ft | 27 kts | 49° |
| 2026-05-06 12:09 | 53.63375 | 10.00152 | 49 ft | 19 kts | 206° |
| 2026-05-06 12:10 | 53.63246 | 10.00178 | 49 ft | 21 kts | 180° |
| 2026-05-06 12:10 | 53.63137 | 10.00191 | 49 ft | 8 kts | 175° |
| 2026-05-06 12:10 | 53.63090 | 10.00198 | 49 ft | 0 kts | 175° |
| 2026-05-06 12:11 | 53.63088 | 10.00199 | 49 ft | 2 kts | 172° |
| 2026-05-06 12:11 | 53.63074 | 10.00230 | 48 ft | 5 kts | 101° |
| 2026-05-06 12:11 | 53.63075 | 10.00320 | 49 ft | 10 kts | 94° |
| 2026-05-06 12:11 | 53.63074 | 10.00378 | 49 ft | 4 kts | 92° |
| 2026-05-06 12:12 | 53.63074 | 10.00383 | 49 ft | 0 kts | 93° |